Airfield :







YOU CAN JOIN US ON...

 
LOGIN :

Register | Disclaimer

   EN    FR    IT 

 









Legend :    VFR   Marginal VFR   IFR   Intensive IFR   Very Intensive IFR
Visi :
Ceiling :
>= 8 km
>= 3000ft
5 to 8 km
1000 to 3000 ft
1500m to 5 km
500 to 1000 ft
800 to 1500m
200 to 500 ft
< 800m
< 200 ft
Symbols :   Thunderstorms  Fog  Heavy snow  Heavy precipitations  Wind > 20 kt







- Airport Elevation : 357 ft
- IATA code : YSJ


CYSJ - Saint John

CURRENT METAR :
  • 192316Z 21006KT 6SM BR BKN003 OVC017 08/08 A3011 RMK SF6SC2 SLP201

EXPIRED METARs :
  • 192300Z 20006KT 8SM -SHRA BKN004 OVC026 08/08 A3011 RMK SF5SC3 SLP200
  • 192200Z 21007KT 15SM -SHRA BKN004 BKN030 08/08 A3011 RMK SF7SC1 SC TR SLP203
  • 192151Z 21008KT 15SM -SHRA BKN004 OVC030 08/08 A3012 RMK SF6SC2 SLP204
  • 192100Z 24007KT 15SM -SHRA FEW020 OVC042 09/08 A3013 RMK SC1SC7 SLP207

TAF AMD TAF CYSJ
Valid from the 19 at 22:00 until the 20 at 06:00 UTC


192210Z 1922/2006 19005KT 2SM -RA BR BKN004 BKN030
TEMPO 1922/2006 6SM -RA BR FEW005 BKN030
BECMG 2004/2006 14008KT RMK NXT FCST BY 200000Z
CZQM FIR / North America



MET'MAP, your aeronautical weather chart ! - Copyright ORBIFLY December 2007 - Disclaimer

ORBIFLY MET'MAP TEAM :

Programming & Development : Alexandra Zaïnal
Concept & Development : Baudouin d'Aumeries
Co-Development & Prog : Marc-Olivier Méhu
Technical & hardware support : Manuel Goepfert

Contact : metmap@orbifly.com




SOURCES & CREDITS :

   NOAA